TimeCST,TemperatureF,Dew PointF,Humidity,Sea Level PressureIn,VisibilityMPH,Wind Direction,Wind SpeedMPH,Gust SpeedMPH,PrecipitationIn,Events,Conditions,WindDirDegrees,DateUTC
12:53 AM,10.0,6.1,84,30.46,10.0,South,4.6,-,N/A,,Overcast,190,2014-02-11 06:53:00
1:53 AM,12.0,7.0,80,30.45,10.0,South,4.6,-,N/A,,Overcast,190,2014-02-11 07:53:00
2:30 AM,12.0,7.0,80,30.31,10.0,South,9.2,-,N/A,,Overcast,180,2014-02-11 08:30:00
2:53 AM,12.0,7.0,80,30.43,10.0,SSW,5.8,-,N/A,,Overcast,200,2014-02-11 08:53:00
3:53 AM,12.9,8.1,81,30.41,10.0,SSW,5.8,-,N/A,,Overcast,200,2014-02-11 09:53:00
4:53 AM,14.0,9.0,80,30.40,10.0,South,5.8,-,N/A,,Overcast,190,2014-02-11 10:53:00
5:53 AM,16.0,10.0,77,30.38,10.0,SSW,8.1,-,N/A,,Overcast,200,2014-02-11 11:53:00
6:53 AM,16.0,10.9,81,30.35,10.0,South,8.1,-,N/A,,Overcast,170,2014-02-11 12:53:00
7:53 AM,17.1,10.9,77,30.36,9.0,South,8.1,-,N/A,,Overcast,190,2014-02-11 13:53:00
8:53 AM,18.0,12.0,78,30.36,10.0,South,9.2,-,N/A,,Overcast,190,2014-02-11 14:53:00
9:53 AM,19.9,14.0,78,30.35,10.0,South,8.1,-,N/A,,Overcast,190,2014-02-11 15:53:00
10:53 AM,21.9,15.1,75,30.34,10.0,South,16.1,-,N/A,,Overcast,190,2014-02-11 16:53:00
11:53 AM,25.0,18.0,75,30.31,10.0,South,15.0,-,N/A,,Overcast,190,2014-02-11 17:53:00
12:51 PM,28.4,19.4,69,30.16,10.0,South,10.4,-,N/A,,Scattered Clouds,190,2014-02-11 18:51:00
12:53 PM,28.0,19.9,72,30.26,10.0,SSW,11.5,-,N/A,,Partly Cloudy,200,2014-02-11 18:53:00
1:53 PM,30.0,21.9,72,30.20,10.0,South,15.0,-,N/A,,Clear,190,2014-02-11 19:53:00
2:53 PM,30.9,21.9,69,30.17,10.0,South,12.7,-,N/A,,Clear,190,2014-02-11 20:53:00
3:53 PM,30.9,21.9,69,30.14,10.0,South,13.8,-,N/A,,Clear,180,2014-02-11 21:53:00
4:53 PM,28.9,21.0,72,30.13,10.0,South,12.7,-,N/A,,Clear,190,2014-02-11 22:53:00
5:53 PM,26.1,19.0,75,30.12,10.0,South,11.5,-,N/A,,Clear,190,2014-02-11 23:53:00
6:53 PM,25.0,19.0,78,30.13,10.0,SSW,11.5,-,N/A,,Clear,200,2014-02-12 00:53:00
7:53 PM,24.1,18.0,77,30.13,10.0,SSW,8.1,-,N/A,,Clear,200,2014-02-12 01:53:00
8:53 PM,24.1,18.0,77,30.13,10.0,SSW,10.4,-,N/A,,Clear,200,2014-02-12 02:53:00
9:53 PM,25.0,18.0,75,30.14,10.0,SW,12.7,-,N/A,,Clear,220,2014-02-12 03:53:00
10:53 PM,24.1,18.0,77,30.14,10.0,SW,11.5,-,N/A,,Clear,230,2014-02-12 04:53:00
11:53 PM,25.0,18.0,75,30.10,10.0,SW,10.4,-,N/A,,Scattered Clouds,230,2014-02-12 05:53:00